sensor_id;sensor_type;location;lat;lon;timestamp;P1;durP1;ratioP1;P2;durP2;ratioP2
51616;SDS011;37697;52.588;13.394;2023-06-26T00:03:51;8.10;;;7.30;;
51616;SDS011;37697;52.588;13.394;2023-06-26T00:09:17;8.50;;;7.10;;
51616;SDS011;37697;52.588;13.394;2023-06-26T00:14:25;7.60;;;6.80;;
51616;SDS011;37697;52.588;13.394;2023-06-26T00:19:51;9.50;;;7.10;;
51616;SDS011;37697;52.588;13.394;2023-06-26T00:25:10;8.90;;;8.00;;
51616;SDS011;37697;52.588;13.394;2023-06-26T00:30:35;8.40;;;7.20;;
51616;SDS011;37697;52.588;13.394;2023-06-26T00:36:01;7.70;;;6.90;;
51616;SDS011;37697;52.588;13.394;2023-06-26T00:41:27;9.10;;;8.00;;
51616;SDS011;37697;52.588;13.394;2023-06-26T00:46:53;7.50;;;6.70;;
51616;SDS011;37697;52.588;13.394;2023-06-26T00:52:19;8.80;;;7.40;;
51616;SDS011;37697;52.588;13.394;2023-06-26T00:57:44;8.80;;;7.70;;
51616;SDS011;37697;52.588;13.394;2023-06-26T01:03:11;8.20;;;6.90;;
51616;SDS011;37697;52.588;13.394;2023-06-26T01:08:37;7.80;;;6.90;;
51616;SDS011;37697;52.588;13.394;2023-06-26T01:14:03;7.80;;;7.00;;
51616;SDS011;37697;52.588;13.394;2023-06-26T01:19:29;7.90;;;7.10;;
51616;SDS011;37697;52.588;13.394;2023-06-26T01:25:03;7.70;;;6.90;;
51616;SDS011;37697;52.588;13.394;2023-06-26T01:30:41;9.50;;;7.90;;
51616;SDS011;37697;52.588;13.394;2023-06-26T01:36:08;8.30;;;7.40;;
51616;SDS011;37697;52.588;13.394;2023-06-26T01:41:34;8.80;;;7.80;;
51616;SDS011;37697;52.588;13.394;2023-06-26T01:47:01;9.30;;;7.40;;
51616;SDS011;37697;52.588;13.394;2023-06-26T01:52:30;8.80;;;7.70;;
51616;SDS011;37697;52.588;13.394;2023-06-26T01:58:03;8.60;;;7.70;;
51616;SDS011;37697;52.588;13.394;2023-06-26T02:03:30;9.30;;;8.20;;
51616;SDS011;37697;52.588;13.394;2023-06-26T02:08:56;10.00;;;7.60;;
51616;SDS011;37697;52.588;13.394;2023-06-26T02:14:21;8.50;;;6.90;;
51616;SDS011;37697;52.588;13.394;2023-06-26T02:19:47;10.10;;;7.70;;
51616;SDS011;37697;52.588;13.394;2023-06-26T02:25:13;9.60;;;8.60;;
51616;SDS011;37697;52.588;13.394;2023-06-26T02:30:39;9.60;;;8.50;;
51616;SDS011;37697;52.588;13.394;2023-06-26T02:36:05;11.00;;;7.60;;
51616;SDS011;37697;52.588;13.394;2023-06-26T02:41:32;9.10;;;7.80;;
51616;SDS011;37697;52.588;13.394;2023-06-26T02:46:57;10.90;;;8.40;;
51616;SDS011;37697;52.588;13.394;2023-06-26T02:52:23;10.90;;;9.20;;
51616;SDS011;37697;52.588;13.394;2023-06-26T02:57:49;10.00;;;8.40;;
51616;SDS011;37697;52.588;13.394;2023-06-26T03:03:14;10.20;;;9.20;;
51616;SDS011;37697;52.588;13.394;2023-06-26T03:08:40;10.10;;;8.90;;
51616;SDS011;37697;52.588;13.394;2023-06-26T03:14:07;10.40;;;9.20;;
51616;SDS011;37697;52.588;13.394;2023-06-26T03:19:32;10.30;;;9.20;;
51616;SDS011;37697;52.588;13.394;2023-06-26T03:24:58;11.40;;;10.20;;
51616;SDS011;37697;52.588;13.394;2023-06-26T03:30:25;10.10;;;9.00;;
51616;SDS011;37697;52.588;13.394;2023-06-26T03:35:51;10.80;;;9.20;;
51616;SDS011;37697;52.588;13.394;2023-06-26T03:41:17;11.40;;;9.90;;
51616;SDS011;37697;52.588;13.394;2023-06-26T03:46:43;10.00;;;9.10;;
51616;SDS011;37697;52.588;13.394;2023-06-26T03:52:09;10.60;;;9.30;;
51616;SDS011;37697;52.588;13.394;2023-06-26T03:57:34;13.10;;;11.00;;
51616;SDS011;37697;52.588;13.394;2023-06-26T04:03:00;11.00;;;9.90;;
51616;SDS011;37697;52.588;13.394;2023-06-26T04:08:26;10.50;;;9.30;;
51616;SDS011;37697;52.588;13.394;2023-06-26T04:13:51;11.20;;;10.00;;
51616;SDS011;37697;52.588;13.394;2023-06-26T04:19:16;14.50;;;12.50;;
51616;SDS011;37697;52.588;13.394;2023-06-26T04:24:42;13.10;;;11.80;;
51616;SDS011;37697;52.588;13.394;2023-06-26T04:30:09;13.30;;;11.70;;
51616;SDS011;37697;52.588;13.394;2023-06-26T04:35:36;15.00;;;11.80;;
51616;SDS011;37697;52.588;13.394;2023-06-26T04:41:02;14.80;;;12.30;;
51616;SDS011;37697;52.588;13.394;2023-06-26T04:46:27;12.40;;;11.20;;
51616;SDS011;37697;52.588;13.394;2023-06-26T04:51:53;13.70;;;12.30;;
51616;SDS011;37697;52.588;13.394;2023-06-26T04:57:19;13.30;;;11.90;;
51616;SDS011;37697;52.588;13.394;2023-06-26T05:02:38;13.00;;;11.60;;
51616;SDS011;37697;52.588;13.394;2023-06-26T05:08:15;12.10;;;10.90;;
51616;SDS011;37697;52.588;13.394;2023-06-26T05:13:43;11.50;;;10.20;;
51616;SDS011;37697;52.588;13.394;2023-06-26T05:19:09;11.10;;;9.40;;
51616;SDS011;37697;52.588;13.394;2023-06-26T05:24:35;11.50;;;10.10;;
51616;SDS011;37697;52.588;13.394;2023-06-26T05:30:02;10.40;;;9.40;;
51616;SDS011;37697;52.588;13.394;2023-06-26T05:35:30;12.90;;;9.70;;
51616;SDS011;37697;52.588;13.394;2023-06-26T05:40:57;9.80;;;8.70;;
51616;SDS011;37697;52.588;13.394;2023-06-26T05:46:23;10.30;;;8.80;;
51616;SDS011;37697;52.588;13.394;2023-06-26T05:51:49;9.40;;;8.40;;
51616;SDS011;37697;52.588;13.394;2023-06-26T05:57:15;8.70;;;7.10;;
51616;SDS011;37697;52.588;13.394;2023-06-26T06:02:43;8.10;;;7.30;;
51616;SDS011;37697;52.588;13.394;2023-06-26T06:08:10;10.00;;;8.10;;
51616;SDS011;37697;52.588;13.394;2023-06-26T06:13:36;8.10;;;7.30;;
51616;SDS011;37697;52.588;13.394;2023-06-26T06:19:01;22.30;;;7.90;;
51616;SDS011;37697;52.588;13.394;2023-06-26T06:24:27;8.70;;;6.80;;
51616;SDS011;37697;52.588;13.394;2023-06-26T06:29:55;7.70;;;6.40;;
51616;SDS011;37697;52.588;13.394;2023-06-26T06:35:29;8.20;;;6.10;;
51616;SDS011;37697;52.588;13.394;2023-06-26T06:40:54;6.20;;;5.40;;
51616;SDS011;37697;52.588;13.394;2023-06-26T06:46:19;6.30;;;5.50;;
51616;SDS011;37697;52.588;13.394;2023-06-26T06:51:45;6.50;;;5.50;;
51616;SDS011;37697;52.588;13.394;2023-06-26T06:57:05;7.60;;;5.90;;
51616;SDS011;37697;52.588;13.394;2023-06-26T07:02:31;6.50;;;5.40;;
51616;SDS011;37697;52.588;13.394;2023-06-26T07:07:57;6.90;;;5.50;;
51616;SDS011;37697;52.588;13.394;2023-06-26T07:13:22;16.70;;;5.50;;
51616;SDS011;37697;52.588;13.394;2023-06-26T07:18:51;9.40;;;5.90;;
51616;SDS011;37697;52.588;13.394;2023-06-26T07:24:17;7.20;;;5.90;;
51616;SDS011;37697;52.588;13.394;2023-06-26T07:29:42;6.20;;;4.70;;
51616;SDS011;37697;52.588;13.394;2023-06-26T07:35:08;6.70;;;4.80;;
51616;SDS011;37697;52.588;13.394;2023-06-26T07:40:34;6.30;;;4.50;;
51616;SDS011;37697;52.588;13.394;2023-06-26T07:46:00;6.30;;;3.90;;
51616;SDS011;37697;52.588;13.394;2023-06-26T07:51:25;5.10;;;3.60;;
51616;SDS011;37697;52.588;13.394;2023-06-26T07:56:55;5.70;;;3.60;;
51616;SDS011;37697;52.588;13.394;2023-06-26T08:02:22;5.60;;;4.70;;
51616;SDS011;37697;52.588;13.394;2023-06-26T08:07:48;5.20;;;4.10;;
51616;SDS011;37697;52.588;13.394;2023-06-26T08:13:14;4.90;;;3.60;;
51616;SDS011;37697;52.588;13.394;2023-06-26T08:18:40;5.30;;;4.00;;
51616;SDS011;37697;52.588;13.394;2023-06-26T08:24:06;4.70;;;4.20;;
51616;SDS011;37697;52.588;13.394;2023-06-26T08:29:32;5.80;;;3.70;;
51616;SDS011;37697;52.588;13.394;2023-06-26T08:34:57;5.00;;;3.60;;
51616;SDS011;37697;52.588;13.394;2023-06-26T08:40:23;4.70;;;3.60;;
51616;SDS011;37697;52.588;13.394;2023-06-26T08:45:50;5.40;;;3.60;;
51616;SDS011;37697;52.588;13.394;2023-06-26T08:51:17;6.00;;;4.20;;
51616;SDS011;37697;52.588;13.394;2023-06-26T08:56:45;5.30;;;3.80;;
51616;SDS011;37697;52.588;13.394;2023-06-26T09:02:16;3.90;;;3.20;;
51616;SDS011;37697;52.588;13.394;2023-06-26T09:07:49;5.40;;;3.80;;
51616;SDS011;37697;52.588;13.394;2023-06-26T09:13:15;9.20;;;3.70;;
51616;SDS011;37697;52.588;13.394;2023-06-26T09:18:42;4.50;;;3.30;;
51616;SDS011;37697;52.588;13.394;2023-06-26T09:24:10;5.30;;;3.30;;
51616;SDS011;37697;52.588;13.394;2023-06-26T09:29:36;3.80;;;3.30;;
51616;SDS011;37697;52.588;13.394;2023-06-26T09:35:03;4.60;;;3.60;;
51616;SDS011;37697;52.588;13.394;2023-06-26T09:40:29;3.90;;;3.30;;
51616;SDS011;37697;52.588;13.394;2023-06-26T09:45:55;3.90;;;3.30;;
51616;SDS011;37697;52.588;13.394;2023-06-26T09:51:20;4.80;;;3.40;;
51616;SDS011;37697;52.588;13.394;2023-06-26T09:56:49;4.10;;;3.20;;
51616;SDS011;37697;52.588;13.394;2023-06-26T10:02:15;4.20;;;3.00;;
51616;SDS011;37697;52.588;13.394;2023-06-26T10:07:41;4.00;;;3.20;;
51616;SDS011;37697;52.588;13.394;2023-06-26T10:13:08;4.00;;;2.90;;
51616;SDS011;37697;52.588;13.394;2023-06-26T10:18:40;3.50;;;2.80;;
51616;SDS011;37697;52.588;13.394;2023-06-26T10:24:09;5.70;;;2.90;;
51616;SDS011;37697;52.588;13.394;2023-06-26T10:29:47;4.80;;;3.00;;
51616;SDS011;37697;52.588;13.394;2023-06-26T10:35:17;3.30;;;2.80;;
51616;SDS011;37697;52.588;13.394;2023-06-26T10:40:44;3.90;;;3.10;;
51616;SDS011;37697;52.588;13.394;2023-06-26T10:46:11;4.50;;;3.20;;
51616;SDS011;37697;52.588;13.394;2023-06-26T10:51:35;5.30;;;3.30;;
51616;SDS011;37697;52.588;13.394;2023-06-26T10:56:49;5.10;;;3.20;;
51616;SDS011;37697;52.588;13.394;2023-06-26T11:02:16;4.10;;;3.60;;
51616;SDS011;37697;52.588;13.394;2023-06-26T11:07:32;3.90;;;2.90;;
51616;SDS011;37697;52.588;13.394;2023-06-26T11:12:56;5.30;;;3.40;;
51616;SDS011;37697;52.588;13.394;2023-06-26T11:18:23;4.50;;;3.20;;
51616;SDS011;37697;52.588;13.394;2023-06-26T11:23:50;6.40;;;3.40;;
51616;SDS011;37697;52.588;13.394;2023-06-26T11:29:12;5.40;;;3.30;;
51616;SDS011;37697;52.588;13.394;2023-06-26T11:34:31;4.70;;;3.20;;
51616;SDS011;37697;52.588;13.394;2023-06-26T11:39:37;6.20;;;3.20;;
51616;SDS011;37697;52.588;13.394;2023-06-26T11:45:03;5.80;;;3.00;;
51616;SDS011;37697;52.588;13.394;2023-06-26T11:50:29;5.10;;;3.30;;
51616;SDS011;37697;52.588;13.394;2023-06-26T11:55:50;6.80;;;3.80;;
51616;SDS011;37697;52.588;13.394;2023-06-26T12:01:16;4.40;;;2.90;;
51616;SDS011;37697;52.588;13.394;2023-06-26T12:06:46;3.90;;;3.10;;
51616;SDS011;37697;52.588;13.394;2023-06-26T12:17:38;6.60;;;3.70;;
51616;SDS011;37697;52.588;13.394;2023-06-26T12:22:58;5.90;;;3.70;;
51616;SDS011;37697;52.588;13.394;2023-06-26T12:28:24;3.80;;;3.20;;
51616;SDS011;37697;52.588;13.394;2023-06-26T12:33:51;5.00;;;3.90;;
51616;SDS011;37697;52.588;13.394;2023-06-26T12:39:18;4.00;;;3.60;;
51616;SDS011;37697;52.588;13.394;2023-06-26T12:44:45;6.30;;;3.80;;
51616;SDS011;37697;52.588;13.394;2023-06-26T12:55:40;4.60;;;3.60;;
51616;SDS011;37697;52.588;13.394;2023-06-26T13:00:54;8.60;;;4.30;;
51616;SDS011;37697;52.588;13.394;2023-06-26T13:06:20;4.60;;;4.10;;
51616;SDS011;37697;52.588;13.394;2023-06-26T13:11:36;4.50;;;4.00;;
51616;SDS011;37697;52.588;13.394;2023-06-26T13:17:03;4.40;;;3.80;;
51616;SDS011;37697;52.588;13.394;2023-06-26T13:22:29;5.60;;;4.50;;
51616;SDS011;37697;52.588;13.394;2023-06-26T13:27:44;4.30;;;3.90;;
51616;SDS011;37697;52.588;13.394;2023-06-26T13:33:04;6.10;;;4.30;;
51616;SDS011;37697;52.588;13.394;2023-06-26T13:38:28;6.00;;;4.40;;
51616;SDS011;37697;52.588;13.394;2023-06-26T13:43:54;11.10;;;4.50;;
51616;SDS011;37697;52.588;13.394;2023-06-26T13:49:40;5.40;;;3.80;;
51616;SDS011;37697;52.588;13.394;2023-06-26T13:55:06;4.90;;;4.40;;
51616;SDS011;37697;52.588;13.394;2023-06-26T14:00:33;5.70;;;4.00;;
51616;SDS011;37697;52.588;13.394;2023-06-26T14:06:01;7.60;;;4.50;;
51616;SDS011;37697;52.588;13.394;2023-06-26T14:11:27;5.80;;;4.50;;
51616;SDS011;37697;52.588;13.394;2023-06-26T14:16:53;6.30;;;4.60;;
51616;SDS011;37697;52.588;13.394;2023-06-26T14:22:19;12.70;;;4.70;;
51616;SDS011;37697;52.588;13.394;2023-06-26T14:27:44;10.20;;;5.80;;
51616;SDS011;37697;52.588;13.394;2023-06-26T14:33:10;13.90;;;6.70;;
51616;SDS011;37697;52.588;13.394;2023-06-26T14:38:36;8.50;;;5.40;;
51616;SDS011;37697;52.588;13.394;2023-06-26T14:44:03;11.00;;;5.30;;
51616;SDS011;37697;52.588;13.394;2023-06-26T14:49:20;9.00;;;5.20;;
51616;SDS011;37697;52.588;13.394;2023-06-26T14:54:26;7.50;;;5.70;;
51616;SDS011;37697;52.588;13.394;2023-06-26T14:59:45;6.60;;;5.80;;
51616;SDS011;37697;52.588;13.394;2023-06-26T15:05:04;9.80;;;6.60;;
51616;SDS011;37697;52.588;13.394;2023-06-26T15:10:31;8.90;;;4.40;;
51616;SDS011;37697;52.588;13.394;2023-06-26T15:15:56;7.00;;;3.00;;
51616;SDS011;37697;52.588;13.394;2023-06-26T15:21:25;3.80;;;1.90;;
51616;SDS011;37697;52.588;13.394;2023-06-26T15:26:51;5.40;;;2.60;;
51616;SDS011;37697;52.588;13.394;2023-06-26T15:32:17;5.60;;;2.90;;
51616;SDS011;37697;52.588;13.394;2023-06-26T15:37:42;6.10;;;3.70;;
51616;SDS011;37697;52.588;13.394;2023-06-26T15:43:08;6.10;;;4.10;;
51616;SDS011;37697;52.588;13.394;2023-06-26T15:48:33;5.40;;;4.30;;
51616;SDS011;37697;52.588;13.394;2023-06-26T15:53:45;5.20;;;4.70;;
51616;SDS011;37697;52.588;13.394;2023-06-26T15:59:05;5.50;;;4.20;;
51616;SDS011;37697;52.588;13.394;2023-06-26T16:04:23;5.00;;;4.30;;
51616;SDS011;37697;52.588;13.394;2023-06-26T16:09:49;6.50;;;5.10;;
51616;SDS011;37697;52.588;13.394;2023-06-26T16:15:15;6.50;;;5.70;;
51616;SDS011;37697;52.588;13.394;2023-06-26T16:20:33;7.60;;;6.00;;
51616;SDS011;37697;52.588;13.394;2023-06-26T16:25:59;8.80;;;6.60;;
51616;SDS011;37697;52.588;13.394;2023-06-26T16:31:25;7.30;;;5.90;;
51616;SDS011;37697;52.588;13.394;2023-06-26T16:36:51;7.00;;;6.20;;
51616;SDS011;37697;52.588;13.394;2023-06-26T16:42:16;7.00;;;5.60;;
51616;SDS011;37697;52.588;13.394;2023-06-26T16:47:42;7.80;;;6.20;;
51616;SDS011;37697;52.588;13.394;2023-06-26T16:53:08;6.90;;;5.70;;
51616;SDS011;37697;52.588;13.394;2023-06-26T16:58:34;7.70;;;6.00;;
51616;SDS011;37697;52.588;13.394;2023-06-26T17:04:00;7.60;;;5.70;;
51616;SDS011;37697;52.588;13.394;2023-06-26T17:09:26;7.60;;;5.70;;
51616;SDS011;37697;52.588;13.394;2023-06-26T17:14:51;7.90;;;5.80;;
51616;SDS011;37697;52.588;13.394;2023-06-26T17:20:17;8.40;;;6.00;;
51616;SDS011;37697;52.588;13.394;2023-06-26T17:25:44;7.10;;;5.10;;
51616;SDS011;37697;52.588;13.394;2023-06-26T17:31:09;6.40;;;5.40;;
51616;SDS011;37697;52.588;13.394;2023-06-26T17:36:36;9.20;;;5.70;;
51616;SDS011;37697;52.588;13.394;2023-06-26T17:42:00;7.90;;;5.20;;
51616;SDS011;37697;52.588;13.394;2023-06-26T17:47:19;6.30;;;4.90;;
51616;SDS011;37697;52.588;13.394;2023-06-26T17:52:45;8.10;;;5.00;;
51616;SDS011;37697;52.588;13.394;2023-06-26T17:58:10;9.60;;;4.90;;
51616;SDS011;37697;52.588;13.394;2023-06-26T18:03:35;8.70;;;5.00;;
51616;SDS011;37697;52.588;13.394;2023-06-26T18:09:01;7.80;;;4.60;;
51616;SDS011;37697;52.588;13.394;2023-06-26T18:14:28;7.00;;;4.70;;
51616;SDS011;37697;52.588;13.394;2023-06-26T18:19:54;7.40;;;4.70;;
51616;SDS011;37697;52.588;13.394;2023-06-26T18:25:20;7.30;;;4.80;;
51616;SDS011;37697;52.588;13.394;2023-06-26T18:30:45;6.80;;;4.40;;
51616;SDS011;37697;52.588;13.394;2023-06-26T18:36:11;5.70;;;4.70;;
51616;SDS011;37697;52.588;13.394;2023-06-26T18:41:37;8.30;;;4.50;;
51616;SDS011;37697;52.588;13.394;2023-06-26T18:46:50;7.20;;;4.60;;
51616;SDS011;37697;52.588;13.394;2023-06-26T18:52:16;6.50;;;4.90;;
51616;SDS011;37697;52.588;13.394;2023-06-26T18:57:41;7.90;;;4.70;;
51616;SDS011;37697;52.588;13.394;2023-06-26T19:03:07;9.60;;;4.70;;
51616;SDS011;37697;52.588;13.394;2023-06-26T19:08:33;6.60;;;4.40;;
51616;SDS011;37697;52.588;13.394;2023-06-26T19:13:59;6.70;;;4.30;;
51616;SDS011;37697;52.588;13.394;2023-06-26T19:19:27;5.70;;;4.20;;
51616;SDS011;37697;52.588;13.394;2023-06-26T19:24:43;5.70;;;3.60;;
51616;SDS011;37697;52.588;13.394;2023-06-26T19:30:03;6.30;;;4.00;;
51616;SDS011;37697;52.588;13.394;2023-06-26T19:35:30;6.20;;;3.80;;
51616;SDS011;37697;52.588;13.394;2023-06-26T19:40:56;6.40;;;3.40;;
51616;SDS011;37697;52.588;13.394;2023-06-26T19:46:15;4.30;;;3.10;;
51616;SDS011;37697;52.588;13.394;2023-06-26T19:51:40;8.10;;;3.10;;
51616;SDS011;37697;52.588;13.394;2023-06-26T19:57:06;8.20;;;2.90;;
51616;SDS011;37697;52.588;13.394;2023-06-26T20:02:31;6.30;;;2.60;;
51616;SDS011;37697;52.588;13.394;2023-06-26T20:07:57;8.40;;;3.20;;
51616;SDS011;37697;52.588;13.394;2023-06-26T20:13:23;7.80;;;3.00;;
51616;SDS011;37697;52.588;13.394;2023-06-26T20:18:49;7.80;;;3.40;;
51616;SDS011;37697;52.588;13.394;2023-06-26T20:24:14;10.80;;;3.40;;
51616;SDS011;37697;52.588;13.394;2023-06-26T20:29:39;6.00;;;2.70;;
51616;SDS011;37697;52.588;13.394;2023-06-26T20:35:05;6.00;;;2.50;;
51616;SDS011;37697;52.588;13.394;2023-06-26T20:40:31;5.50;;;2.30;;
51616;SDS011;37697;52.588;13.394;2023-06-26T20:45:58;4.70;;;1.70;;
51616;SDS011;37697;52.588;13.394;2023-06-26T20:51:25;5.20;;;2.10;;
51616;SDS011;37697;52.588;13.394;2023-06-26T20:56:52;4.40;;;2.00;;
51616;SDS011;37697;52.588;13.394;2023-06-26T21:02:18;5.00;;;1.90;;
51616;SDS011;37697;52.588;13.394;2023-06-26T21:07:45;5.40;;;1.90;;
51616;SDS011;37697;52.588;13.394;2023-06-26T21:13:10;6.50;;;1.80;;
51616;SDS011;37697;52.588;13.394;2023-06-26T21:18:36;3.80;;;1.80;;
51616;SDS011;37697;52.588;13.394;2023-06-26T21:24:02;4.70;;;1.70;;
51616;SDS011;37697;52.588;13.394;2023-06-26T21:29:28;4.40;;;1.70;;
51616;SDS011;37697;52.588;13.394;2023-06-26T21:34:54;4.30;;;1.80;;
51616;SDS011;37697;52.588;13.394;2023-06-26T21:40:37;3.70;;;1.70;;
51616;SDS011;37697;52.588;13.394;2023-06-26T21:46:02;6.00;;;1.70;;
51616;SDS011;37697;52.588;13.394;2023-06-26T21:51:28;4.30;;;1.60;;
51616;SDS011;37697;52.588;13.394;2023-06-26T21:56:54;3.00;;;1.70;;
51616;SDS011;37697;52.588;13.394;2023-06-26T22:02:20;2.60;;;1.40;;
51616;SDS011;37697;52.588;13.394;2023-06-26T22:08:07;4.50;;;1.30;;
51616;SDS011;37697;52.588;13.394;2023-06-26T22:13:32;3.90;;;1.40;;
51616;SDS011;37697;52.588;13.394;2023-06-26T22:18:58;3.90;;;1.60;;
51616;SDS011;37697;52.588;13.394;2023-06-26T22:24:24;4.20;;;1.40;;
51616;SDS011;37697;52.588;13.394;2023-06-26T22:29:50;3.50;;;1.60;;
51616;SDS011;37697;52.588;13.394;2023-06-26T22:35:16;4.50;;;1.60;;
51616;SDS011;37697;52.588;13.394;2023-06-26T22:40:44;5.00;;;2.10;;
51616;SDS011;37697;52.588;13.394;2023-06-26T22:46:10;6.70;;;1.90;;
51616;SDS011;37697;52.588;13.394;2023-06-26T22:51:36;5.70;;;2.00;;
51616;SDS011;37697;52.588;13.394;2023-06-26T22:57:03;5.00;;;2.00;;
51616;SDS011;37697;52.588;13.394;2023-06-26T23:02:29;7.00;;;2.30;;
51616;SDS011;37697;52.588;13.394;2023-06-26T23:07:55;10.60;;;2.80;;
51616;SDS011;37697;52.588;13.394;2023-06-26T23:13:21;9.60;;;3.40;;
51616;SDS011;37697;52.588;13.394;2023-06-26T23:18:47;6.20;;;2.60;;
51616;SDS011;37697;52.588;13.394;2023-06-26T23:24:12;5.30;;;2.30;;
51616;SDS011;37697;52.588;13.394;2023-06-26T23:29:38;5.60;;;2.00;;
51616;SDS011;37697;52.588;13.394;2023-06-26T23:35:05;5.50;;;2.20;;
51616;SDS011;37697;52.588;13.394;2023-06-26T23:40:31;4.50;;;2.20;;
51616;SDS011;37697;52.588;13.394;2023-06-26T23:45:56;8.50;;;2.80;;
51616;SDS011;37697;52.588;13.394;2023-06-26T23:51:22;6.50;;;2.60;;
51616;SDS011;37697;52.588;13.394;2023-06-26T23:56:48;6.70;;;2.00;;
